Time,TemperatureF,DewpointF,PressureIn,WindDirection,WindDirectionDegrees,WindSpeedMPH,WindSpeedGustMPH,Humidity,HourlyPrecipIn,Conditions,Clouds,dailyrainin,SoftwareType,DateUTC
2013-04-21 00:00:00,32.9,28.0,30.39,North,349,0.0,0.0,82,0.00,,,0.00,WUHU216DAVISVP2,2013-04-21 04:00:00,
2013-04-21 00:01:00,32.9,28.0,30.39,North,349,0.0,0.0,82,0.00,,,0.00,WUHU216DAVISVP2,2013-04-21 04:01:00,
2013-04-21 00:06:00,32.7,28.1,30.39,North,349,0.0,0.0,83,0.00,,,0.00,WUHU216DAVISVP2,2013-04-21 04:06:00,
2013-04-21 00:11:00,32.4,27.8,30.39,North,349,0.0,1.0,83,0.00,,,0.00,WUHU216DAVISVP2,2013-04-21 04:11:00,
2013-04-21 00:16:00,32.2,27.9,30.40,North,349,0.0,1.0,84,0.00,,,0.00,WUHU216DAVISVP2,2013-04-21 04:16:00,
2013-04-21 00:21:00,32.0,28.0,30.40,North,349,0.0,1.0,85,0.00,,,0.00,WUHU216DAVISVP2,2013-04-21 04:21:00,
2013-04-21 00:26:00,31.8,27.5,30.40,North,349,0.0,1.0,84,0.00,,,0.00,WUHU216DAVISVP2,2013-04-21 04:26:00,
2013-04-21 00:31:00,31.6,27.6,30.41,North,349,0.0,0.0,85,0.00,,,0.00,WUHU216DAVISVP2,2013-04-21 04:31:00,
2013-04-21 00:36:00,31.5,27.5,30.41,North,349,0.0,1.0,85,0.00,,,0.00,WUHU216DAVISVP2,2013-04-21 04:36:00,
2013-04-21 00:41:00,31.4,27.4,30.41,North,349,0.0,1.0,85,0.00,,,0.00,WUHU216DAVISVP2,2013-04-21 04:41:00,
2013-04-21 00:46:00,31.3,27.3,30.41,North,349,0.0,1.0,85,0.00,,,0.00,WUHU216DAVISVP2,2013-04-21 04:46:00,
2013-04-21 00:51:00,31.2,27.2,30.41,North,349,0.0,1.0,85,0.00,,,0.00,WUHU216DAVISVP2,2013-04-21 04:51:00,
2013-04-21 00:56:00,31.0,26.7,30.42,North,349,0.0,1.0,84,0.00,,,0.00,WUHU216DAVISVP2,2013-04-21 04:56:00,
2013-04-21 01:01:00,30.9,26.9,30.42,North,349,0.0,1.0,85,0.00,,,0.00,WUHU216DAVISVP2,2013-04-21 05:01:00,
2013-04-21 01:06:00,30.7,27.0,30.42,North,349,0.0,1.0,86,0.00,,,0.00,WUHU216DAVISVP2,2013-04-21 05:06:00,
2013-04-21 01:11:00,30.6,26.9,30.42,North,349,0.0,1.0,86,0.00,,,0.00,WUHU216DAVISVP2,2013-04-21 05:11:00,
2013-04-21 01:16:00,30.5,26.8,30.42,North,349,0.0,1.0,86,0.00,,,0.00,WUHU216DAVISVP2,2013-04-21 05:16:00,
2013-04-21 01:21:00,30.4,26.7,30.43,North,349,0.0,1.0,86,0.00,,,0.00,WUHU216DAVISVP2,2013-04-21 05:21:00,
2013-04-21 01:26:00,30.3,26.6,30.43,North,349,0.0,1.0,86,0.00,,,0.00,WUHU216DAVISVP2,2013-04-21 05:26:00,
2013-04-21 01:31:00,30.2,26.8,30.43,North,349,0.0,0.0,87,0.00,,,0.00,WUHU216DAVISVP2,2013-04-21 05:31:00,
2013-04-21 01:36:00,30.1,26.7,30.43,North,349,0.0,0.0,87,0.00,,,0.00,WUHU216DAVISVP2,2013-04-21 05:36:00,
2013-04-21 01:41:00,30.0,26.6,30.43,North,349,0.0,0.0,87,0.00,,,0.00,WUHU216DAVISVP2,2013-04-21 05:41:00,
2013-04-21 01:46:00,29.9,26.7,30.44,North,349,0.0,0.0,88,0.00,,,0.00,WUHU216DAVISVP2,2013-04-21 05:46:00,
2013-04-21 01:51:00,29.9,26.8,30.44,North,349,0.0,1.0,88,0.00,,,0.00,WUHU216DAVISVP2,2013-04-21 05:51:00,
2013-04-21 01:56:00,29.8,26.7,30.44,North,349,0.0,1.0,88,0.00,,,0.00,WUHU216DAVISVP2,2013-04-21 05:56:00,
2013-04-21 02:01:00,29.6,26.4,30.44,North,349,0.0,1.0,88,0.00,,,0.00,WUHU216DAVISVP2,2013-04-21 06:01:00,
2013-04-21 02:06:00,29.7,26.8,30.44,North,349,0.0,1.0,89,0.00,,,0.00,WUHU216DAVISVP2,2013-04-21 06:06:00,
2013-04-21 02:11:00,29.6,26.8,30.44,North,349,0.0,1.0,89,0.00,,,0.00,WUHU216DAVISVP2,2013-04-21 06:11:00,
2013-04-21 02:16:00,29.4,26.3,30.44,North,349,0.0,1.0,88,0.00,,,0.00,WUHU216DAVISVP2,2013-04-21 06:16:00,
2013-04-21 02:21:00,29.2,26.0,30.44,North,349,0.0,1.0,88,0.00,,,0.00,WUHU216DAVISVP2,2013-04-21 06:21:00,
2013-04-21 02:26:00,29.1,25.9,30.44,North,349,0.0,0.0,88,0.00,,,0.00,WUHU216DAVISVP2,2013-04-21 06:26:00,
2013-04-21 02:31:00,28.9,26.0,30.44,North,349,0.0,0.0,89,0.00,,,0.00,WUHU216DAVISVP2,2013-04-21 06:31:00,
2013-04-21 02:36:00,28.9,26.3,30.45,North,349,0.0,0.0,90,0.00,,,0.00,WUHU216DAVISVP2,2013-04-21 06:36:00,
2013-04-21 02:41:00,28.9,26.3,30.45,North,349,0.0,0.0,90,0.00,,,0.00,WUHU216DAVISVP2,2013-04-21 06:41:00,
2013-04-21 02:46:00,28.8,25.9,30.45,North,349,0.0,0.0,89,0.00,,,0.00,WUHU216DAVISVP2,2013-04-21 06:46:00,
2013-04-21 02:51:00,28.6,25.7,30.45,North,349,0.0,0.0,89,0.00,,,0.00,WUHU216DAVISVP2,2013-04-21 06:51:00,
2013-04-21 02:55:00,28.4,25.6,30.45,North,349,0.0,0.0,89,0.00,,,0.00,WUHU216DAVISVP2,2013-04-21 06:55:00,
2013-04-21 03:01:00,28.3,25.7,30.46,North,349,0.0,0.0,90,0.00,,,0.00,WUHU216DAVISVP2,2013-04-21 07:01:00,
2013-04-21 03:06:00,28.2,25.6,30.45,North,349,0.0,0.0,90,0.00,,,0.00,WUHU216DAVISVP2,2013-04-21 07:06:00,
2013-04-21 03:11:00,28.1,25.8,30.46,North,349,0.0,0.0,91,0.00,,,0.00,WUHU216DAVISVP2,2013-04-21 07:11:00,
2013-04-21 03:16:00,28.1,25.8,30.46,North,349,0.0,0.0,91,0.00,,,0.00,WUHU216DAVISVP2,2013-04-21 07:16:00,
2013-04-21 03:20:00,28.2,25.9,30.46,North,349,0.0,0.0,91,0.00,,,0.00,WUHU216DAVISVP2,2013-04-21 07:20:00,
2013-04-21 03:26:00,28.1,25.8,30.46,North,349,0.0,0.0,91,0.00,,,0.00,WUHU216DAVISVP2,2013-04-21 07:26:00,
2013-04-21 03:30:00,28.2,25.9,30.46,North,349,0.0,0.0,91,0.00,,,0.00,WUHU216DAVISVP2,2013-04-21 07:30:00,
2013-04-21 03:36:00,28.2,25.9,30.46,North,349,0.0,0.0,91,0.00,,,0.00,WUHU216DAVISVP2,2013-04-21 07:36:00,
2013-04-21 03:41:00,28.2,25.9,30.46,North,349,0.0,0.0,91,0.00,,,0.00,WUHU216DAVISVP2,2013-04-21 07:41:00,
2013-04-21 03:46:00,28.1,25.8,30.46,North,349,0.0,0.0,91,0.00,,,0.00,WUHU216DAVISVP2,2013-04-21 07:46:00,
2013-04-21 03:51:00,27.9,25.6,30.47,North,349,0.0,0.0,91,0.00,,,0.00,WUHU216DAVISVP2,2013-04-21 07:51:00,
2013-04-21 03:56:00,27.8,25.5,30.47,North,349,0.0,0.0,91,0.00,,,0.00,WUHU216DAVISVP2,2013-04-21 07:56:00,
2013-04-21 04:01:00,27.6,25.3,30.47,North,349,0.0,0.0,91,0.00,,,0.00,WUHU216DAVISVP2,2013-04-21 08:01:00,
2013-04-21 04:05:00,27.5,25.2,30.47,North,349,0.0,0.0,91,0.00,,,0.00,WUHU216DAVISVP2,2013-04-21 08:05:00,
2013-04-21 04:10:00,27.3,25.0,30.47,North,349,0.0,0.0,91,0.00,,,0.00,WUHU216DAVISVP2,2013-04-21 08:10:00,
2013-04-21 04:15:00,27.2,24.9,30.47,North,349,0.0,0.0,91,0.00,,,0.00,WUHU216DAVISVP2,2013-04-21 08:15:00,
2013-04-21 04:21:00,27.0,24.7,30.48,North,349,0.0,0.0,91,0.00,,,0.00,WUHU216DAVISVP2,2013-04-21 08:21:00,
2013-04-21 04:25:00,26.9,24.8,30.48,North,349,0.0,0.0,92,0.00,,,0.00,WUHU216DAVISVP2,2013-04-21 08:25:00,
2013-04-21 04:30:00,27.2,25.4,30.48,North,349,0.0,0.0,93,0.00,,,0.00,WUHU216DAVISVP2,2013-04-21 08:30:00,
2013-04-21 04:35:00,27.2,25.4,30.49,North,349,0.0,0.0,93,0.00,,,0.00,WUHU216DAVISVP2,2013-04-21 08:35:00,
2013-04-21 04:40:00,27.2,25.4,30.49,North,349,0.0,0.0,93,0.00,,,0.00,WUHU216DAVISVP2,2013-04-21 08:40:00,
2013-04-21 04:45:00,27.0,24.9,30.49,North,349,0.0,0.0,92,0.00,,,0.00,WUHU216DAVISVP2,2013-04-21 08:45:00,
2013-04-21 04:50:00,26.9,24.8,30.49,North,349,0.0,0.0,92,0.00,,,0.00,WUHU216DAVISVP2,2013-04-21 08:50:00,
2013-04-21 04:55:00,26.7,24.6,30.49,North,349,0.0,0.0,92,0.00,,,0.00,WUHU216DAVISVP2,2013-04-21 08:55:00,
2013-04-21 05:00:00,26.6,24.5,30.50,North,349,0.0,0.0,92,0.00,,,0.00,WUHU216DAVISVP2,2013-04-21 09:00:00,
2013-04-21 05:05:00,26.5,24.4,30.50,North,349,0.0,0.0,92,0.00,,,0.00,WUHU216DAVISVP2,2013-04-21 09:05:00,
2013-04-21 05:10:00,26.3,24.2,30.50,North,349,0.0,0.0,92,0.00,,,0.00,WUHU216DAVISVP2,2013-04-21 09:10:00,
2013-04-21 05:15:00,26.3,24.5,30.50,North,349,0.0,0.0,93,0.00,,,0.00,WUHU216DAVISVP2,2013-04-21 09:15:00,
2013-04-21 05:20:00,26.4,24.6,30.50,North,349,0.0,0.0,93,0.00,,,0.00,WUHU216DAVISVP2,2013-04-21 09:20:00,
2013-04-21 05:25:00,26.4,24.6,30.50,North,349,0.0,0.0,93,0.00,,,0.00,WUHU216DAVISVP2,2013-04-21 09:25:00,
2013-04-21 05:30:00,26.3,24.5,30.50,North,349,0.0,0.0,93,0.00,,,0.00,WUHU216DAVISVP2,2013-04-21 09:30:00,
2013-04-21 05:35:00,26.2,24.4,30.51,North,349,0.0,0.0,93,0.00,,,0.00,WUHU216DAVISVP2,2013-04-21 09:35:00,
2013-04-21 05:40:00,26.2,24.4,30.51,North,349,0.0,0.0,93,0.00,,,0.00,WUHU216DAVISVP2,2013-04-21 09:40:00,
2013-04-21 05:45:00,26.3,24.8,30.51,North,349,0.0,0.0,94,0.00,,,0.00,WUHU216DAVISVP2,2013-04-21 09:45:00,
2013-04-21 05:50:00,26.3,24.8,30.52,North,349,0.0,0.0,94,0.00,,,0.00,WUHU216DAVISVP2,2013-04-21 09:50:00,
2013-04-21 05:55:00,26.3,24.8,30.52,North,349,0.0,0.0,94,0.00,,,0.00,WUHU216DAVISVP2,2013-04-21 09:55:00,
2013-04-21 06:00:00,26.1,24.3,30.52,North,349,0.0,1.0,93,0.00,,,0.00,WUHU216DAVISVP2,2013-04-21 10:00:00,
2013-04-21 06:05:00,26.0,24.2,30.52,North,349,0.0,1.0,93,0.00,,,0.00,WUHU216DAVISVP2,2013-04-21 10:05:00,
2013-04-21 06:10:00,25.8,24.0,30.53,North,349,0.0,1.0,93,0.00,,,0.00,WUHU216DAVISVP2,2013-04-21 10:10:00,
2013-04-21 06:15:00,25.7,23.9,30.53,North,349,0.0,1.0,93,0.00,,,0.00,WUHU216DAVISVP2,2013-04-21 10:15:00,
2013-04-21 06:20:00,25.5,23.7,30.53,North,349,0.0,0.0,93,0.00,,,0.00,WUHU216DAVISVP2,2013-04-21 10:20:00,
2013-04-21 06:25:00,25.4,23.6,30.54,North,349,0.0,0.0,93,0.00,,,0.00,WUHU216DAVISVP2,2013-04-21 10:25:00,
2013-04-21 06:30:00,25.3,23.5,30.54,North,349,0.0,0.0,93,0.00,,,0.00,WUHU216DAVISVP2,2013-04-21 10:30:00,
2013-04-21 06:35:00,25.5,24.0,30.54,North,349,0.0,0.0,94,0.00,,,0.00,WUHU216DAVISVP2,2013-04-21 10:35:00,
2013-04-21 06:40:00,25.7,24.2,30.54,North,349,0.0,0.0,94,0.00,,,0.00,WUHU216DAVISVP2,2013-04-21 10:40:00,
2013-04-21 06:45:00,25.8,24.3,30.55,North,349,0.0,0.0,94,0.00,,,0.00,WUHU216DAVISVP2,2013-04-21 10:45:00,
2013-04-21 06:50:00,25.7,24.2,30.55,North,349,0.0,0.0,94,0.00,,,0.00,WUHU216DAVISVP2,2013-04-21 10:50:00,
2013-04-21 06:55:00,25.7,24.2,30.56,North,349,0.0,0.0,94,0.00,,,0.00,WUHU216DAVISVP2,2013-04-21 10:55:00,
2013-04-21 07:00:00,25.7,24.2,30.56,North,349,0.0,0.0,94,0.00,,,0.00,WUHU216DAVISVP2,2013-04-21 11:00:00,
2013-04-21 07:05:00,25.9,24.6,30.56,North,349,0.0,1.0,95,0.00,,,0.00,WUHU216DAVISVP2,2013-04-21 11:05:00,
2013-04-21 07:10:00,26.2,25.0,30.56,North,349,0.0,1.0,95,0.00,,,0.00,WUHU216DAVISVP2,2013-04-21 11:10:00,
2013-04-21 07:15:00,26.3,25.0,30.56,North,349,0.0,1.0,95,0.00,,,0.00,WUHU216DAVISVP2,2013-04-21 11:15:00,
2013-04-21 07:20:00,26.3,25.1,30.57,North,349,0.0,1.0,95,0.00,,,0.00,WUHU216DAVISVP2,2013-04-21 11:20:00,
2013-04-21 07:25:00,26.4,25.1,30.57,North,349,0.0,1.0,95,0.00,,,0.00,WUHU216DAVISVP2,2013-04-21 11:25:00,
2013-04-21 07:30:00,26.7,25.4,30.57,North,349,0.0,1.0,95,0.00,,,0.00,WUHU216DAVISVP2,2013-04-21 11:30:00,
2013-04-21 07:35:00,27.1,25.8,30.57,North,349,0.0,1.0,95,0.00,,,0.00,WUHU216DAVISVP2,2013-04-21 11:35:00,
2013-04-21 07:40:00,27.4,26.1,30.58,North,349,0.0,1.0,95,0.00,,,0.00,WUHU216DAVISVP2,2013-04-21 11:40:00,
2013-04-21 07:45:00,27.8,26.5,30.58,North,349,0.0,1.0,95,0.00,,,0.00,WUHU216DAVISVP2,2013-04-21 11:45:00,
2013-04-21 07:50:00,28.2,26.9,30.58,North,349,0.0,1.0,95,0.00,,,0.00,WUHU216DAVISVP2,2013-04-21 11:50:00,
2013-04-21 07:55:00,28.6,27.3,30.58,North,349,0.0,1.0,95,0.00,,,0.00,WUHU216DAVISVP2,2013-04-21 11:55:00,
2013-04-21 08:00:00,28.9,27.3,30.59,North,349,0.0,1.0,94,0.00,,,0.00,WUHU216DAVISVP2,2013-04-21 12:00:00,
2013-04-21 08:05:00,29.2,27.6,30.59,North,349,0.0,1.0,94,0.00,,,0.00,WUHU216DAVISVP2,2013-04-21 12:05:00,
2013-04-21 08:10:00,29.6,28.0,30.59,North,349,0.0,0.0,94,0.00,,,0.00,WUHU216DAVISVP2,2013-04-21 12:10:00,
2013-04-21 08:15:00,29.9,28.1,30.59,North,349,0.0,1.0,93,0.00,,,0.00,WUHU216DAVISVP2,2013-04-21 12:15:00,
2013-04-21 08:20:00,30.3,28.5,30.59,North,349,0.0,1.0,93,0.00,,,0.00,WUHU216DAVISVP2,2013-04-21 12:20:00,
2013-04-21 08:25:00,30.5,28.4,30.59,North,349,0.0,1.0,92,0.00,,,0.00,WUHU216DAVISVP2,2013-04-21 12:25:00,
2013-04-21 08:30:00,30.8,28.7,30.59,North,349,0.0,1.0,92,0.00,,,0.00,WUHU216DAVISVP2,2013-04-21 12:30:00,
2013-04-21 08:35:00,31.1,28.8,30.59,North,349,0.0,1.0,91,0.00,,,0.00,WUHU216DAVISVP2,2013-04-21 12:35:00,
2013-04-21 08:40:00,31.3,28.4,30.59,North,349,0.0,1.0,89,0.00,,,0.00,WUHU216DAVISVP2,2013-04-21 12:40:00,
2013-04-21 08:45:00,31.6,28.4,30.60,North,349,0.0,1.0,88,0.00,,,0.00,WUHU216DAVISVP2,2013-04-21 12:45:00,
2013-04-21 08:50:00,32.0,28.8,30.60,North,349,0.0,1.0,88,0.00,,,0.00,WUHU216DAVISVP2,2013-04-21 12:50:00,
2013-04-21 08:55:00,32.6,28.6,30.59,North,349,0.0,2.0,85,0.00,,,0.00,WUHU216DAVISVP2,2013-04-21 12:55:00,
2013-04-21 09:00:00,32.9,28.6,30.59,NNW,343,1.0,2.0,84,0.00,,,0.00,WUHU216DAVISVP2,2013-04-21 13:00:00,
2013-04-21 09:05:00,33.5,27.7,30.59,East,79,5.0,5.0,79,0.00,,,0.00,WUHU216DAVISVP2,2013-04-21 13:05:00,
2013-04-21 09:10:00,34.7,28.3,30.59,NNW,347,3.0,7.0,77,0.00,,,0.00,WUHU216DAVISVP2,2013-04-21 13:10:00,
2013-04-21 09:15:00,35.5,27.4,30.59,NNE,19,0.0,7.0,72,0.00,,,0.00,WUHU216DAVISVP2,2013-04-21 13:15:00,
2013-04-21 09:20:00,36.1,25.8,30.60,NE,42,4.0,8.0,66,0.00,,,0.00,WUHU216DAVISVP2,2013-04-21 13:20:00,
2013-04-21 09:25:00,36.7,24.2,30.59,NNE,12,3.0,9.0,60,0.00,,,0.00,WUHU216DAVISVP2,2013-04-21 13:25:00,
2013-04-21 09:30:00,37.0,24.0,30.59,NE,48,4.0,9.0,59,0.00,,,0.00,WUHU216DAVISVP2,2013-04-21 13:30:00,
2013-04-21 09:35:00,37.5,25.3,30.59,SE,125,5.0,11.0,61,0.00,,,0.00,WUHU216DAVISVP2,2013-04-21 13:35:00,
2013-04-21 09:40:00,37.8,24.8,30.60,ENE,70,2.0,11.0,59,0.00,,,0.00,WUHU216DAVISVP2,2013-04-21 13:40:00,
2013-04-21 09:45:00,38.1,25.5,30.60,East,82,3.0,11.0,60,0.00,,,0.00,WUHU216DAVISVP2,2013-04-21 13:45:00,
2013-04-21 09:50:00,38.4,24.9,30.60,North,359,3.0,11.0,58,0.00,,,0.00,WUHU216DAVISVP2,2013-04-21 13:50:00,
2013-04-21 09:55:00,38.6,25.1,30.60,NNE,22,4.0,8.0,58,0.00,,,0.00,WUHU216DAVISVP2,2013-04-21 13:55:00,
2013-04-21 10:00:00,38.6,24.3,30.60,North,354,2.0,8.0,56,0.00,,,0.00,WUHU216DAVISVP2,2013-04-21 14:00:00,
2013-04-21 10:05:00,38.7,24.8,30.60,NNE,29,8.0,8.0,57,0.00,,,0.00,WUHU216DAVISVP2,2013-04-21 14:05:00,
2013-04-21 10:10:00,38.7,23.9,30.60,ENE,75,3.0,8.0,55,0.00,,,0.00,WUHU216DAVISVP2,2013-04-21 14:10:00,
2013-04-21 10:15:00,38.7,23.9,30.60,ENE,66,4.0,8.0,55,0.00,,,0.00,WUHU216DAVISVP2,2013-04-21 14:15:00,
2013-04-21 10:20:00,38.9,25.0,30.60,NE,40,2.0,8.0,57,0.00,,,0.00,WUHU216DAVISVP2,2013-04-21 14:20:00,
2013-04-21 10:25:00,39.0,24.7,30.60,ESE,108,2.0,7.0,56,0.00,,,0.00,WUHU216DAVISVP2,2013-04-21 14:25:00,
2013-04-21 10:30:00,39.2,25.7,30.60,East,79,6.0,8.0,58,0.00,,,0.00,WUHU216DAVISVP2,2013-04-21 14:30:00,
2013-04-21 10:35:00,39.7,26.2,30.60,ENE,65,4.0,8.0,58,0.00,,,0.00,WUHU216DAVISVP2,2013-04-21 14:35:00,
2013-04-21 10:40:00,39.7,24.9,30.60,East,98,0.0,8.0,55,0.00,,,0.00,WUHU216DAVISVP2,2013-04-21 14:40:00,
2013-04-21 10:45:00,40.2,26.2,30.60,SE,141,0.0,8.0,57,0.00,,,0.00,WUHU216DAVISVP2,2013-04-21 14:45:00,
2013-04-21 10:50:00,40.7,26.2,30.59,ENE,65,5.0,8.0,56,0.00,,,0.00,WUHU216DAVISVP2,2013-04-21 14:50:00,
2013-04-21 10:55:00,40.9,25.5,30.60,North,4,1.0,8.0,54,0.00,,,0.00,WUHU216DAVISVP2,2013-04-21 14:55:00,
2013-04-21 11:00:00,41.2,24.9,30.59,West,281,3.0,8.0,52,0.00,,,0.00,WUHU216DAVISVP2,2013-04-21 15:00:00,
2013-04-21 11:05:00,41.5,25.2,30.59,East,96,2.0,8.0,52,0.00,,,0.00,WUHU216DAVISVP2,2013-04-21 15:05:00,
2013-04-21 11:10:00,41.8,25.9,30.59,SSW,193,1.0,8.0,53,0.00,,,0.00,WUHU216DAVISVP2,2013-04-21 15:10:00,
2013-04-21 11:15:00,42.2,24.9,30.59,South,190,1.0,6.0,50,0.00,,,0.00,WUHU216DAVISVP2,2013-04-21 15:15:00,
2013-04-21 11:20:00,42.6,27.6,30.59,ESE,118,2.0,6.0,55,0.00,,,0.00,WUHU216DAVISVP2,2013-04-21 15:20:00,
2013-04-21 11:25:00,43.1,25.2,30.59,SSE,159,2.0,6.0,49,0.00,,,0.00,WUHU216DAVISVP2,2013-04-21 15:25:00,
2013-04-21 11:30:00,43.7,28.1,30.59,SE,131,0.0,7.0,54,0.00,,,0.00,WUHU216DAVISVP2,2013-04-21 15:30:00,
2013-04-21 11:35:00,44.4,28.3,30.59,East,79,1.0,7.0,53,0.00,,,0.00,WUHU216DAVISVP2,2013-04-21 15:35:00,
2013-04-21 11:40:00,44.6,26.6,30.59,NE,54,5.0,7.0,49,0.00,,,0.00,WUHU216DAVISVP2,2013-04-21 15:40:00,
2013-04-21 11:45:00,44.4,27.9,30.59,SSE,154,3.0,8.0,52,0.00,,,0.00,WUHU216DAVISVP2,2013-04-21 15:45:00,
2013-04-21 11:50:00,44.9,28.3,30.59,ENE,71,3.0,8.0,52,0.00,,,0.00,WUHU216DAVISVP2,2013-04-21 15:50:00,
2013-04-21 11:55:00,45.5,26.9,30.58,ENE,67,1.0,8.0,48,0.00,,,0.00,WUHU216DAVISVP2,2013-04-21 15:55:00,
2013-04-21 12:00:00,45.5,25.3,30.58,SW,214,2.0,8.0,45,0.00,,,0.00,WUHU216DAVISVP2,2013-04-21 16:00:00,
2013-04-21 12:05:00,45.7,24.9,30.58,SW,228,3.0,7.0,44,0.00,,,0.00,WUHU216DAVISVP2,2013-04-21 16:05:00,
2013-04-21 12:10:00,45.5,25.3,30.58,SW,228,2.0,6.0,45,0.00,,,0.00,WUHU216DAVISVP2,2013-04-21 16:10:00,
2013-04-21 12:15:00,45.6,24.8,30.58,West,262,0.0,6.0,44,0.00,,,0.00,WUHU216DAVISVP2,2013-04-21 16:15:00,
2013-04-21 12:20:00,45.6,24.2,30.57,NNE,25,2.0,6.0,43,0.00,,,0.00,WUHU216DAVISVP2,2013-04-21 16:20:00,
2013-04-21 12:25:00,45.2,25.5,30.57,NNW,332,2.0,7.0,46,0.00,,,0.00,WUHU216DAVISVP2,2013-04-21 16:25:00,
2013-04-21 12:30:00,45.4,26.3,30.57,NE,49,4.0,7.0,47,0.00,,,0.00,WUHU216DAVISVP2,2013-04-21 16:30:00,
2013-04-21 12:35:00,45.6,27.0,30.57,ESE,114,3.0,7.0,48,0.00,,,0.00,WUHU216DAVISVP2,2013-04-21 16:35:00,
2013-04-21 12:40:00,46.0,24.6,30.57,East,84,3.0,9.0,43,0.00,,,0.00,WUHU216DAVISVP2,2013-04-21 16:40:00,
2013-04-21 12:45:00,46.0,27.3,30.57,NNE,19,3.0,9.0,48,0.00,,,0.00,WUHU216DAVISVP2,2013-04-21 16:45:00,
2013-04-21 12:50:00,46.4,27.2,30.57,NNW,332,2.0,9.0,47,0.00,,,0.00,WUHU216DAVISVP2,2013-04-21 16:50:00,
2013-04-21 12:55:00,47.1,26.3,30.56,West,275,0.0,9.0,44,0.00,,,0.00,WUHU216DAVISVP2,2013-04-21 16:55:00,
2013-04-21 13:00:00,47.5,26.1,30.56,NW,322,1.0,7.0,43,0.00,,,0.00,WUHU216DAVISVP2,2013-04-21 17:00:00,
2013-04-21 13:05:00,48.1,24.9,30.56,WSW,258,0.0,5.0,40,0.00,,,0.00,WUHU216DAVISVP2,2013-04-21 17:05:00,
2013-04-21 13:10:00,48.5,27.0,30.55,NW,313,1.0,5.0,43,0.00,,,0.00,WUHU216DAVISVP2,2013-04-21 17:10:00,
2013-04-21 13:15:00,48.8,26.7,30.55,North,10,1.0,5.0,42,0.00,,,0.00,WUHU216DAVISVP2,2013-04-21 17:15:00,
2013-04-21 13:20:00,48.9,26.2,30.55,North,4,6.0,7.0,41,0.00,,,0.00,WUHU216DAVISVP2,2013-04-21 17:20:00,
2013-04-21 13:25:00,49.0,26.9,30.55,North,354,6.0,7.0,42,0.00,,,0.00,WUHU216DAVISVP2,2013-04-21 17:25:00,
2013-04-21 13:30:00,49.2,24.6,30.54,West,259,2.0,7.0,38,0.00,,,0.00,WUHU216DAVISVP2,2013-04-21 17:30:00,
2013-04-21 13:35:00,49.4,27.2,30.54,SSW,202,3.0,7.0,42,0.00,,,0.00,WUHU216DAVISVP2,2013-04-21 17:35:00,
2013-04-21 13:40:00,49.6,25.6,30.54,West,263,2.0,7.0,39,0.00,,,0.00,WUHU216DAVISVP2,2013-04-21 17:40:00,
2013-04-21 13:45:00,50.1,26.1,30.54,NNE,33,3.0,7.0,39,0.00,,,0.00,WUHU216DAVISVP2,2013-04-21 17:45:00,
2013-04-21 13:50:00,50.5,25.2,30.54,West,280,3.0,7.0,37,0.00,,,0.00,WUHU216DAVISVP2,2013-04-21 17:50:00,
2013-04-21 13:55:00,50.8,27.3,30.54,East,83,8.0,10.0,40,0.00,,,0.00,WUHU216DAVISVP2,2013-04-21 17:55:00,
2013-04-21 14:00:00,50.5,24.5,30.53,North,354,2.0,10.0,36,0.00,,,0.00,WUHU216DAVISVP2,2013-04-21 18:00:00,
2013-04-21 14:05:00,50.8,26.1,30.53,ESE,104,1.0,10.0,38,0.00,,,0.00,WUHU216DAVISVP2,2013-04-21 18:05:00,
2013-04-21 14:10:00,50.9,23.3,30.53,East,87,2.0,10.0,34,0.00,,,0.00,WUHU216DAVISVP2,2013-04-21 18:10:00,
2013-04-21 14:15:00,50.9,21.8,30.53,ENE,60,0.0,7.0,32,0.00,,,0.00,WUHU216DAVISVP2,2013-04-21 18:15:00,
2013-04-21 14:20:00,51.4,23.0,30.53,North,11,0.0,7.0,33,0.00,,,0.00,WUHU216DAVISVP2,2013-04-21 18:20:00,
2013-04-21 14:25:00,51.6,27.9,30.53,SE,138,1.0,7.0,40,0.00,,,0.00,WUHU216DAVISVP2,2013-04-21 18:25:00,
2013-04-21 14:30:00,52.1,22.9,30.52,SSW,200,2.0,7.0,32,0.00,,,0.00,WUHU216DAVISVP2,2013-04-21 18:30:00,
2013-04-21 14:35:00,51.7,21.8,30.52,NW,316,2.0,9.0,31,0.00,,,0.00,WUHU216DAVISVP2,2013-04-21 18:35:00,
2013-04-21 14:40:00,51.8,27.4,30.52,ENE,65,5.0,10.0,39,0.00,,,0.00,WUHU216DAVISVP2,2013-04-21 18:40:00,
2013-04-21 14:45:00,52.1,24.3,30.52,ENE,70,2.0,10.0,34,0.00,,,0.00,WUHU216DAVISVP2,2013-04-21 18:45:00,
2013-04-21 14:50:00,52.2,25.1,30.51,ENE,64,0.0,10.0,35,0.00,,,0.00,WUHU216DAVISVP2,2013-04-21 18:50:00,
2013-04-21 14:55:00,52.7,23.4,30.51,SW,231,1.0,10.0,32,0.00,,,0.00,WUHU216DAVISVP2,2013-04-21 18:55:00,
2013-04-21 15:00:00,53.2,23.9,30.51,WNW,290,2.0,10.0,32,0.00,,,0.00,WUHU216DAVISVP2,2013-04-21 19:00:00,
2013-04-21 15:05:00,53.2,25.3,30.50,ENE,71,4.0,7.0,34,0.00,,,0.00,WUHU216DAVISVP2,2013-04-21 19:05:00,
2013-04-21 15:10:00,53.2,22.3,30.50,NNW,328,2.0,7.0,30,0.00,,,0.00,WUHU216DAVISVP2,2013-04-21 19:10:00,
2013-04-21 15:15:00,53.0,22.2,30.50,North,350,3.0,7.0,30,0.00,,,0.00,WUHU216DAVISVP2,2013-04-21 19:15:00,
2013-04-21 15:20:00,52.7,24.2,30.50,North,354,3.0,9.0,33,0.00,,,0.00,WUHU216DAVISVP2,2013-04-21 19:20:00,
2013-04-21 15:25:00,53.1,21.4,30.50,NNE,29,0.0,10.0,29,0.00,,,0.00,WUHU216DAVISVP2,2013-04-21 19:25:00,
2013-04-21 15:30:00,53.2,22.3,30.49,ENE,64,2.0,10.0,30,0.00,,,0.00,WUHU216DAVISVP2,2013-04-21 19:30:00,
2013-04-21 15:35:00,53.3,24.7,30.49,NNW,328,3.0,10.0,33,0.00,,,0.00,WUHU216DAVISVP2,2013-04-21 19:35:00,
2013-04-21 15:40:00,53.7,23.5,30.48,North,4,3.0,10.0,31,0.00,,,0.00,WUHU216DAVISVP2,2013-04-21 19:40:00,
2013-04-21 15:45:00,53.8,24.4,30.48,ESE,102,5.0,10.0,32,0.00,,,0.00,WUHU216DAVISVP2,2013-04-21 19:45:00,
2013-04-21 15:50:00,53.9,22.9,30.48,West,271,5.0,10.0,30,0.00,,,0.00,WUHU216DAVISVP2,2013-04-21 19:50:00,
2013-04-21 15:55:00,53.9,26.6,30.48,East,100,0.0,10.0,35,0.00,,,0.00,WUHU216DAVISVP2,2013-04-21 19:55:00,
2013-04-21 16:00:00,54.3,27.0,30.48,ESE,111,0.0,9.0,35,0.00,,,0.00,WUHU216DAVISVP2,2013-04-21 20:00:00,
2013-04-21 16:05:00,54.9,24.6,30.48,ENE,77,5.0,9.0,31,0.00,,,0.00,WUHU216DAVISVP2,2013-04-21 20:05:00,
2013-04-21 16:10:00,54.7,25.4,30.47,ESE,119,0.0,9.0,32,0.00,,,0.00,WUHU216DAVISVP2,2013-04-21 20:10:00,
2013-04-21 16:15:00,54.6,24.5,30.47,North,354,1.0,9.0,31,0.00,,,0.00,WUHU216DAVISVP2,2013-04-21 20:15:00,
2013-04-21 16:20:00,54.9,24.6,30.47,NNW,347,7.0,9.0,31,0.00,,,0.00,WUHU216DAVISVP2,2013-04-21 20:20:00,
2013-04-21 16:25:00,55.1,23.2,30.46,WNW,295,2.0,9.0,29,0.00,,,0.00,WUHU216DAVISVP2,2013-04-21 20:25:00,
2013-04-21 16:30:00,55.1,23.2,30.46,NNW,340,2.0,9.0,29,0.00,,,0.00,WUHU216DAVISVP2,2013-04-21 20:30:00,
2013-04-21 16:35:00,55.1,22.4,30.46,NNE,28,3.0,9.0,28,0.00,,,0.00,WUHU216DAVISVP2,2013-04-21 20:35:00,
2013-04-21 16:40:00,54.9,23.0,30.46,NE,39,3.0,9.0,29,0.00,,,0.00,WUHU216DAVISVP2,2013-04-21 20:40:00,
2013-04-21 16:45:00,54.8,22.9,30.46,North,9,4.0,9.0,29,0.00,,,0.00,WUHU216DAVISVP2,2013-04-21 20:45:00,
2013-04-21 16:50:00,55.1,23.2,30.46,NE,53,5.0,9.0,29,0.00,,,0.00,WUHU216DAVISVP2,2013-04-21 20:50:00,
2013-04-21 16:55:00,55.7,22.9,30.46,North,359,1.0,9.0,28,0.00,,,0.00,WUHU216DAVISVP2,2013-04-21 20:55:00,
2013-04-21 17:00:00,56.0,20.5,30.46,ENE,77,1.0,8.0,25,0.00,,,0.00,WUHU216DAVISVP2,2013-04-21 21:00:00,
2013-04-21 17:05:00,55.7,25.3,30.46,ENE,75,0.0,8.0,31,0.00,,,0.00,WUHU216DAVISVP2,2013-04-21 21:05:00,
2013-04-21 17:10:00,56.0,19.6,30.45,SSW,212,2.0,8.0,24,0.00,,,0.00,WUHU216DAVISVP2,2013-04-21 21:10:00,
2013-04-21 17:15:00,56.0,18.6,30.45,NE,48,1.0,8.0,23,0.00,,,0.00,WUHU216DAVISVP2,2013-04-21 21:15:00,
2013-04-21 17:20:00,55.6,19.2,30.45,North,10,0.0,7.0,24,0.00,,,0.00,WUHU216DAVISVP2,2013-04-21 21:20:00,
2013-04-21 17:25:00,55.9,22.2,30.45,ESE,114,0.0,7.0,27,0.00,,,0.00,WUHU216DAVISVP2,2013-04-21 21:25:00,
2013-04-21 17:30:00,56.4,24.3,30.45,ESE,119,0.0,7.0,29,0.00,,,0.00,WUHU216DAVISVP2,2013-04-21 21:30:00,
2013-04-21 17:35:00,56.9,22.2,30.45,South,178,1.0,5.0,26,0.00,,,0.00,WUHU216DAVISVP2,2013-04-21 21:35:00,
2013-04-21 17:40:00,57.1,24.9,30.45,SE,126,1.0,4.0,29,0.00,,,0.00,WUHU216DAVISVP2,2013-04-21 21:40:00,
2013-04-21 17:45:00,56.9,22.2,30.45,SE,135,1.0,4.0,26,0.00,,,0.00,WUHU216DAVISVP2,2013-04-21 21:45:00,
2013-04-21 17:50:00,56.8,23.8,30.45,SSE,160,1.0,4.0,28,0.00,,,0.00,WUHU216DAVISVP2,2013-04-21 21:50:00,
2013-04-21 17:55:00,56.5,22.7,30.45,ESE,115,11.0,11.0,27,0.00,,,0.00,WUHU216DAVISVP2,2013-04-21 21:55:00,
2013-04-21 18:00:00,56.0,26.3,30.45,SSW,196,2.0,11.0,32,0.00,,,0.00,WUHU216DAVISVP2,2013-04-21 22:00:00,
2013-04-21 18:05:00,55.8,25.4,30.46,SE,143,2.0,11.0,31,0.00,,,0.00,WUHU216DAVISVP2,2013-04-21 22:05:00,
2013-04-21 18:10:00,55.4,23.4,30.46,East,91,8.0,11.0,29,0.00,,,0.00,WUHU216DAVISVP2,2013-04-21 22:10:00,
2013-04-21 18:15:00,55.2,26.4,30.46,South,170,4.0,10.0,33,0.00,,,0.00,WUHU216DAVISVP2,2013-04-21 22:15:00,
2013-04-21 18:20:00,55.2,27.1,30.46,SSE,162,2.0,10.0,34,0.00,,,0.00,WUHU216DAVISVP2,2013-04-21 22:20:00,
2013-04-21 18:25:00,54.7,26.6,30.46,SE,139,6.0,11.0,34,0.00,,,0.00,WUHU216DAVISVP2,2013-04-21 22:25:00,
2013-04-21 18:30:00,54.4,27.1,30.46,SE,128,2.0,11.0,35,0.00,,,0.00,WUHU216DAVISVP2,2013-04-21 22:30:00,
2013-04-21 18:35:00,54.2,26.2,30.46,ESE,114,3.0,11.0,34,0.00,,,0.00,WUHU216DAVISVP2,2013-04-21 22:35:00,
2013-04-21 18:40:00,54.1,26.1,30.47,SE,134,0.0,8.0,34,0.00,,,0.00,WUHU216DAVISVP2,2013-04-21 22:40:00,
2013-04-21 18:45:00,53.9,24.5,30.47,SW,221,1.0,9.0,32,0.00,,,0.00,WUHU216DAVISVP2,2013-04-21 22:45:00,
2013-04-21 18:50:00,53.4,24.0,30.47,SSE,156,2.0,9.0,32,0.00,,,0.00,WUHU216DAVISVP2,2013-04-21 22:50:00,
2013-04-21 18:55:00,52.9,24.3,30.47,SE,134,2.0,9.0,33,0.00,,,0.00,WUHU216DAVISVP2,2013-04-21 22:55:00,
2013-04-21 19:00:00,52.4,24.6,30.47,ESE,115,2.0,9.0,34,0.00,,,0.00,WUHU216DAVISVP2,2013-04-21 23:00:00,
2013-04-21 19:05:00,51.9,23.4,30.47,SE,137,0.0,14.0,33,0.00,,,0.00,WUHU216DAVISVP2,2013-04-21 23:05:00,
2013-04-21 19:10:00,51.6,23.2,30.47,South,172,0.0,14.0,33,0.00,,,0.00,WUHU216DAVISVP2,2013-04-21 23:10:00,
2013-04-21 19:15:00,51.4,23.7,30.47,SE,146,5.0,14.0,34,0.00,,,0.00,WUHU216DAVISVP2,2013-04-21 23:15:00,
2013-04-21 19:20:00,51.2,23.5,30.47,SSE,158,2.0,14.0,34,0.00,,,0.00,WUHU216DAVISVP2,2013-04-21 23:20:00,
2013-04-21 19:25:00,50.9,22.6,30.47,SSE,168,1.0,9.0,33,0.00,,,0.00,WUHU216DAVISVP2,2013-04-21 23:25:00,
2013-04-21 19:30:00,50.6,23.0,30.47,East,93,0.0,9.0,34,0.00,,,0.00,WUHU216DAVISVP2,2013-04-21 23:30:00,
2013-04-21 19:35:00,50.4,23.5,30.48,SE,125,2.0,14.0,35,0.00,,,0.00,WUHU216DAVISVP2,2013-04-21 23:35:00,
2013-04-21 19:40:00,50.2,23.6,30.48,SSE,152,1.0,14.0,35,0.00,,,0.00,WUHU216DAVISVP2,2013-04-21 23:40:00,
2013-04-21 19:45:00,50.0,23.4,30.48,SSE,160,4.0,14.0,35,0.00,,,0.00,WUHU216DAVISVP2,2013-04-21 23:45:00,
2013-04-21 19:50:00,49.8,23.9,30.48,SSE,152,0.0,14.0,36,0.00,,,0.00,WUHU216DAVISVP2,2013-04-21 23:50:00,
2013-04-21 19:55:00,49.6,25.0,30.48,SE,128,0.0,10.0,38,0.00,,,0.00,WUHU216DAVISVP2,2013-04-21 23:55:00,
2013-04-21 20:00:00,49.4,23.3,30.48,ENE,78,7.0,10.0,36,0.00,,,0.00,WUHU216DAVISVP2,2013-04-22 00:00:00,
2013-04-21 20:05:00,49.3,23.9,30.48,East,101,4.0,8.0,37,0.00,,,0.00,WUHU216DAVISVP2,2013-04-22 00:05:00,
2013-04-21 20:10:00,49.2,23.1,30.48,East,85,1.0,8.0,36,0.00,,,0.00,WUHU216DAVISVP2,2013-04-22 00:10:00,
2013-04-21 20:15:00,49.1,23.7,30.49,ENE,68,3.0,8.0,37,0.00,,,0.00,WUHU216DAVISVP2,2013-04-22 00:15:00,
2013-04-21 20:20:00,49.0,23.6,30.49,ESE,104,1.0,7.0,37,0.00,,,0.00,WUHU216DAVISVP2,2013-04-22 00:20:00,
2013-04-21 20:25:00,48.8,24.1,30.49,ENE,77,5.0,5.0,38,0.00,,,0.00,WUHU216DAVISVP2,2013-04-22 00:25:00,
2013-04-21 20:30:00,48.7,23.4,30.49,SE,136,0.0,10.0,37,0.00,,,0.00,WUHU216DAVISVP2,2013-04-22 00:30:00,
2013-04-21 20:35:00,48.7,23.4,30.49,East,86,0.0,10.0,37,0.00,,,0.00,WUHU216DAVISVP2,2013-04-22 00:35:00,
2013-04-21 20:40:00,48.6,24.5,30.49,ENE,72,2.0,10.0,39,0.00,,,0.00,WUHU216DAVISVP2,2013-04-22 00:40:00,
2013-04-21 20:45:00,48.3,23.6,30.49,ESE,116,4.0,10.0,38,0.00,,,0.00,WUHU216DAVISVP2,2013-04-22 00:45:00,
2013-04-21 20:50:00,48.2,24.2,30.49,East,96,3.0,9.0,39,0.00,,,0.00,WUHU216DAVISVP2,2013-04-22 00:50:00,
2013-04-21 20:55:00,48.2,23.6,30.49,ENE,70,10.0,11.0,38,0.00,,,0.00,WUHU216DAVISVP2,2013-04-22 00:55:00,
2013-04-21 21:00:00,48.3,23.6,30.49,ENE,70,4.0,11.0,38,0.00,,,0.00,WUHU216DAVISVP2,2013-04-22 01:00:00,
2013-04-21 21:05:00,48.2,24.2,30.50,SE,133,2.0,11.0,39,0.00,,,0.00,WUHU216DAVISVP2,2013-04-22 01:05:00,
2013-04-21 21:10:00,48.1,24.1,30.50,East,97,2.0,11.0,39,0.00,,,0.00,WUHU216DAVISVP2,2013-04-22 01:10:00,
2013-04-21 21:15:00,48.0,24.0,30.50,ENE,73,2.0,8.0,39,0.00,,,0.00,WUHU216DAVISVP2,2013-04-22 01:15:00,
2013-04-21 21:20:00,47.8,25.1,30.51,ESE,122,2.0,10.0,41,0.00,,,0.00,WUHU216DAVISVP2,2013-04-22 01:20:00,
2013-04-21 21:25:00,47.6,25.5,30.51,ESE,102,5.0,13.0,42,0.00,,,0.00,WUHU216DAVISVP2,2013-04-22 01:25:00,
2013-04-21 21:30:00,47.3,25.8,30.51,SE,134,2.0,13.0,43,0.00,,,0.00,WUHU216DAVISVP2,2013-04-22 01:30:00,
2013-04-21 21:35:00,47.0,24.9,30.51,SE,124,1.0,13.0,42,0.00,,,0.00,WUHU216DAVISVP2,2013-04-22 01:35:00,
2013-04-21 21:40:00,46.8,24.7,30.52,ENE,67,0.0,13.0,42,0.00,,,0.00,WUHU216DAVISVP2,2013-04-22 01:40:00,
2013-04-21 21:45:00,46.6,24.6,30.52,SE,135,2.0,9.0,42,0.00,,,0.00,WUHU216DAVISVP2,2013-04-22 01:45:00,
2013-04-21 21:50:00,46.4,24.4,30.52,South,171,2.0,9.0,42,0.00,,,0.00,WUHU216DAVISVP2,2013-04-22 01:50:00,
2013-04-21 21:55:00,46.2,24.8,30.52,East,82,6.0,9.0,43,0.00,,,0.00,WUHU216DAVISVP2,2013-04-22 01:55:00,
2013-04-21 22:00:00,46.1,23.5,30.52,East,84,3.0,9.0,41,0.00,,,0.00,WUHU216DAVISVP2,2013-04-22 02:00:00,
2013-04-21 22:05:00,46.0,23.4,30.52,South,174,2.0,9.0,41,0.00,,,0.00,WUHU216DAVISVP2,2013-04-22 02:05:00,
2013-04-21 22:10:00,45.8,23.8,30.52,SE,138,0.0,9.0,42,0.00,,,0.00,WUHU216DAVISVP2,2013-04-22 02:10:00,
2013-04-21 22:15:00,45.6,23.7,30.52,ENE,70,7.0,9.0,42,0.00,,,0.00,WUHU216DAVISVP2,2013-04-22 02:15:00,
2013-04-21 22:20:00,45.5,23.6,30.52,SSE,150,0.0,9.0,42,0.00,,,0.00,WUHU216DAVISVP2,2013-04-22 02:20:00,
2013-04-21 22:25:00,45.2,23.9,30.53,SSE,160,2.0,9.0,43,0.00,,,0.00,WUHU216DAVISVP2,2013-04-22 02:25:00,
2013-04-21 22:30:00,45.0,24.2,30.52,ESE,104,3.0,9.0,44,0.00,,,0.00,WUHU216DAVISVP2,2013-04-22 02:30:00,
2013-04-21 22:35:00,44.8,24.1,30.52,ESE,120,0.0,7.0,44,0.00,,,0.00,WUHU216DAVISVP2,2013-04-22 02:35:00,
2013-04-21 22:40:00,44.6,23.9,30.53,SSW,199,5.0,6.0,44,0.00,,,0.00,WUHU216DAVISVP2,2013-04-22 02:40:00,
2013-04-21 22:45:00,44.6,23.9,30.52,SSE,168,0.0,8.0,44,0.00,,,0.00,WUHU216DAVISVP2,2013-04-22 02:45:00,
2013-04-21 22:50:00,44.4,23.7,30.53,South,173,3.0,8.0,44,0.00,,,0.00,WUHU216DAVISVP2,2013-04-22 02:50:00,
2013-04-21 22:55:00,44.3,25.2,30.53,South,189,3.0,8.0,47,0.00,,,0.00,WUHU216DAVISVP2,2013-04-22 02:55:00,
2013-04-21 23:00:00,44.0,24.4,30.52,SE,132,0.0,7.0,46,0.00,,,0.00,WUHU216DAVISVP2,2013-04-22 03:00:00,
2013-04-21 23:05:00,44.0,24.4,30.52,SE,130,1.0,7.0,46,0.00,,,0.00,WUHU216DAVISVP2,2013-04-22 03:05:00,
2013-04-21 23:10:00,44.0,24.4,30.53,SE,145,0.0,9.0,46,0.00,,,0.00,WUHU216DAVISVP2,2013-04-22 03:10:00,
2013-04-21 23:15:00,43.9,25.4,30.52,NE,41,3.0,9.0,48,0.00,,,0.00,WUHU216DAVISVP2,2013-04-22 03:15:00,
2013-04-21 23:20:00,43.7,25.2,30.53,SE,142,0.0,9.0,48,0.00,,,0.00,WUHU216DAVISVP2,2013-04-22 03:20:00,
2013-04-21 23:25:00,43.5,24.5,30.52,East,84,2.0,9.0,47,0.00,,,0.00,WUHU216DAVISVP2,2013-04-22 03:25:00,
2013-04-21 23:30:00,43.5,25.0,30.52,SSE,155,1.0,6.0,48,0.00,,,0.00,WUHU216DAVISVP2,2013-04-22 03:30:00,
2013-04-21 23:35:00,43.5,25.5,30.52,NE,42,2.0,5.0,49,0.00,,,0.00,WUHU216DAVISVP2,2013-04-22 03:35:00,
2013-04-21 23:40:00,43.4,25.4,30.52,SE,133,0.0,5.0,49,0.00,,,0.00,WUHU216DAVISVP2,2013-04-22 03:40:00,
2013-04-21 23:45:00,43.3,25.4,30.52,ENE,72,2.0,5.0,49,0.00,,,0.00,WUHU216DAVISVP2,2013-04-22 03:45:00,
2013-04-21 23:50:00,43.3,25.9,30.52,SW,216,2.0,5.0,50,0.00,,,0.00,WUHU216DAVISVP2,2013-04-22 03:50:00,
2013-04-21 23:55:00,43.4,25.4,30.52,South,190,4.0,8.0,49,0.00,,,0.00,WUHU216DAVISVP2,2013-04-22 03:55:00,